sensor_id;sensor_type;location;lat;lon;timestamp;pressure;altitude;pressure_sealevel;temperature;humidity
34034;BME280;63481;52.588;22.472;2023-04-10T00:00:29;101047.22;;;4.29;100.00
34034;BME280;63481;52.588;22.472;2023-04-10T00:01:26;101045.60;;;4.34;100.00
34034;BME280;63481;52.588;22.472;2023-04-10T00:02:20;101045.06;;;4.36;100.00
34034;BME280;63481;52.588;22.472;2023-04-10T00:03:13;101044.97;;;4.32;100.00
34034;BME280;63481;52.588;22.472;2023-04-10T00:04:06;101047.07;;;4.25;100.00
34034;BME280;63481;52.588;22.472;2023-04-10T00:04:59;101046.53;;;4.21;100.00
34034;BME280;63481;52.588;22.472;2023-04-10T00:05:52;101045.45;;;4.19;100.00
34034;BME280;63481;52.588;22.472;2023-04-10T00:06:46;101044.02;;;4.18;100.00
34034;BME280;63481;52.588;22.472;2023-04-10T00:07:40;101043.19;;;4.19;100.00
34034;BME280;63481;52.588;22.472;2023-04-10T00:08:35;101040.40;;;4.17;100.00
34034;BME280;63481;52.588;22.472;2023-04-10T00:09:29;101044.56;;;4.16;100.00
34034;BME280;63481;52.588;22.472;2023-04-10T00:10:22;101042.22;;;4.14;100.00
34034;BME280;63481;52.588;22.472;2023-04-10T00:11:17;101039.33;;;4.15;100.00
34034;BME280;63481;52.588;22.472;2023-04-10T00:12:10;101039.92;;;4.18;100.00
34034;BME280;63481;52.588;22.472;2023-04-10T00:13:03;101040.95;;;4.21;100.00
34034;BME280;63481;52.588;22.472;2023-04-10T00:13:57;101040.79;;;4.22;100.00
34034;BME280;63481;52.588;22.472;2023-04-10T00:14:49;101040.38;;;4.23;100.00
34034;BME280;63481;52.588;22.472;2023-04-10T00:15:42;101036.87;;;4.23;100.00
34034;BME280;63481;52.588;22.472;2023-04-10T00:16:36;101034.77;;;4.24;100.00
34034;BME280;63481;52.588;22.472;2023-04-10T00:17:29;101035.89;;;4.26;100.00
34034;BME280;63481;52.588;22.472;2023-04-10T00:18:21;101035.78;;;4.27;100.00
34034;BME280;63481;52.588;22.472;2023-04-10T00:19:14;101033.77;;;4.26;100.00
34034;BME280;63481;52.588;22.472;2023-04-10T00:20:08;101031.98;;;4.22;100.00
34034;BME280;63481;52.588;22.472;2023-04-10T00:21:04;101033.20;;;4.22;100.00
34034;BME280;63481;52.588;22.472;2023-04-10T00:21:57;101032.17;;;4.30;100.00
34034;BME280;63481;52.588;22.472;2023-04-10T00:22:50;101032.92;;;4.31;100.00
34034;BME280;63481;52.588;22.472;2023-04-10T00:23:43;101031.83;;;4.37;100.00
34034;BME280;63481;52.588;22.472;2023-04-10T00:24:36;101035.98;;;4.41;100.00
34034;BME280;63481;52.588;22.472;2023-04-10T00:25:29;101035.48;;;4.42;100.00
34034;BME280;63481;52.588;22.472;2023-04-10T00:26:23;101035.26;;;4.39;100.00
34034;BME280;63481;52.588;22.472;2023-04-10T00:27:15;101030.58;;;4.31;100.00
34034;BME280;63481;52.588;22.472;2023-04-10T00:28:09;101031.89;;;4.20;100.00
34034;BME280;63481;52.588;22.472;2023-04-10T00:29:02;101034.14;;;4.09;100.00
34034;BME280;63481;52.588;22.472;2023-04-10T00:29:55;101030.09;;;3.98;100.00
34034;BME280;63481;52.588;22.472;2023-04-10T00:30:49;101031.42;;;3.92;100.00
34034;BME280;63481;52.588;22.472;2023-04-10T00:31:42;101029.70;;;3.89;100.00
34034;BME280;63481;52.588;22.472;2023-04-10T00:32:37;101029.22;;;3.85;100.00
34034;BME280;63481;52.588;22.472;2023-04-10T00:33:30;101031.61;;;3.82;100.00
34034;BME280;63481;52.588;22.472;2023-04-10T00:34:23;101030.45;;;3.79;100.00
34034;BME280;63481;52.588;22.472;2023-04-10T00:35:17;101031.14;;;3.78;100.00
34034;BME280;63481;52.588;22.472;2023-04-10T00:36:10;101035.67;;;3.78;100.00
34034;BME280;63481;52.588;22.472;2023-04-10T00:37:03;101033.58;;;3.80;100.00
34034;BME280;63481;52.588;22.472;2023-04-10T00:37:56;101027.94;;;3.88;100.00
34034;BME280;63481;52.588;22.472;2023-04-10T00:38:49;101028.86;;;3.92;100.00
34034;BME280;63481;52.588;22.472;2023-04-10T00:39:42;101027.89;;;3.97;100.00
34034;BME280;63481;52.588;22.472;2023-04-10T00:40:36;101028.00;;;4.00;100.00
34034;BME280;63481;52.588;22.472;2023-04-10T00:41:29;101027.02;;;3.98;100.00
34034;BME280;63481;52.588;22.472;2023-04-10T00:42:22;101026.21;;;3.94;100.00
34034;BME280;63481;52.588;22.472;2023-04-10T00:43:17;101026.60;;;3.94;100.00
34034;BME280;63481;52.588;22.472;2023-04-10T00:44:12;101022.51;;;3.96;100.00
34034;BME280;63481;52.588;22.472;2023-04-10T00:45:05;101023.06;;;3.98;100.00
34034;BME280;63481;52.588;22.472;2023-04-10T00:45:59;101022.80;;;3.97;100.00
34034;BME280;63481;52.588;22.472;2023-04-10T00:46:53;101022.13;;;3.95;100.00
34034;BME280;63481;52.588;22.472;2023-04-10T00:47:47;101021.45;;;3.91;100.00
34034;BME280;63481;52.588;22.472;2023-04-10T00:48:41;101023.19;;;3.93;100.00
34034;BME280;63481;52.588;22.472;2023-04-10T00:49:34;101022.51;;;3.98;100.00
34034;BME280;63481;52.588;22.472;2023-04-10T00:50:26;101025.84;;;3.98;100.00
34034;BME280;63481;52.588;22.472;2023-04-10T00:51:20;101027.08;;;4.00;100.00
34034;BME280;63481;52.588;22.472;2023-04-10T00:52:14;101026.88;;;3.99;100.00
34034;BME280;63481;52.588;22.472;2023-04-10T00:53:07;101026.44;;;3.97;100.00
34034;BME280;63481;52.588;22.472;2023-04-10T00:54:00;101026.52;;;3.97;100.00
34034;BME280;63481;52.588;22.472;2023-04-10T00:54:53;101026.34;;;3.95;100.00
34034;BME280;63481;52.588;22.472;2023-04-10T00:55:47;101029.08;;;3.94;100.00
34034;BME280;63481;52.588;22.472;2023-04-10T00:56:41;101027.13;;;3.94;100.00
34034;BME280;63481;52.588;22.472;2023-04-10T00:57:35;101028.33;;;3.94;100.00
34034;BME280;63481;52.588;22.472;2023-04-10T00:58:28;101028.16;;;3.92;100.00
34034;BME280;63481;52.588;22.472;2023-04-10T00:59:21;101032.28;;;3.90;100.00
34034;BME280;63481;52.588;22.472;2023-04-10T01:00:14;101026.48;;;3.93;100.00
34034;BME280;63481;52.588;22.472;2023-04-10T01:01:08;101028.09;;;3.93;100.00
34034;BME280;63481;52.588;22.472;2023-04-10T01:02:01;101029.70;;;3.87;100.00
34034;BME280;63481;52.588;22.472;2023-04-10T01:02:54;101032.15;;;3.80;100.00
34034;BME280;63481;52.588;22.472;2023-04-10T01:03:47;101033.41;;;3.74;100.00
34034;BME280;63481;52.588;22.472;2023-04-10T01:04:40;101033.64;;;3.70;100.00
34034;BME280;63481;52.588;22.472;2023-04-10T01:08:25;101031.88;;;3.65;100.00
34034;BME280;63481;52.588;22.472;2023-04-10T01:09:43;101033.98;;;3.59;100.00
34034;BME280;63481;52.588;22.472;2023-04-10T01:10:53;101033.05;;;3.48;100.00
34034;BME280;63481;52.588;22.472;2023-04-10T01:11:53;101034.82;;;3.40;100.00
34034;BME280;63481;52.588;22.472;2023-04-10T01:12:52;101036.29;;;3.34;100.00
34034;BME280;63481;52.588;22.472;2023-04-10T01:14:14;101039.86;;;3.26;100.00
34034;BME280;63481;52.588;22.472;2023-04-10T01:15:08;101037.55;;;3.19;100.00
34034;BME280;63481;52.588;22.472;2023-04-10T01:16:10;101037.58;;;3.16;100.00
34034;BME280;63481;52.588;22.472;2023-04-10T01:17:20;101037.61;;;3.18;100.00
34034;BME280;63481;52.588;22.472;2023-04-10T01:20:36;101037.61;;;3.24;100.00
34034;BME280;63481;52.588;22.472;2023-04-10T01:21:34;101037.58;;;3.24;100.00
34034;BME280;63481;52.588;22.472;2023-04-10T01:22:33;101035.83;;;3.24;100.00
34034;BME280;63481;52.588;22.472;2023-04-10T01:23:52;101033.12;;;3.23;100.00
34034;BME280;63481;52.588;22.472;2023-04-10T01:25:04;101035.14;;;3.24;100.00
34034;BME280;63481;52.588;22.472;2023-04-10T01:26:04;101032.70;;;3.25;100.00
34034;BME280;63481;52.588;22.472;2023-04-10T01:27:35;101030.02;;;3.28;100.00
34034;BME280;63481;52.588;22.472;2023-04-10T01:29:51;101027.78;;;3.27;100.00
34034;BME280;63481;52.588;22.472;2023-04-10T01:30:47;101025.48;;;3.31;100.00
34034;BME280;63481;52.588;22.472;2023-04-10T01:32:42;101026.32;;;3.45;100.00
34034;BME280;63481;52.588;22.472;2023-04-10T01:33:53;101029.14;;;3.43;100.00
34034;BME280;63481;52.588;22.472;2023-04-10T01:34:53;101029.34;;;3.33;100.00
34034;BME280;63481;52.588;22.472;2023-04-10T01:35:51;101027.54;;;3.24;100.00
34034;BME280;63481;52.588;22.472;2023-04-10T01:36:55;101029.29;;;3.17;100.00
34034;BME280;63481;52.588;22.472;2023-04-10T01:37:52;101030.21;;;3.11;100.00
34034;BME280;63481;52.588;22.472;2023-04-10T01:38:45;101029.52;;;3.12;100.00
34034;BME280;63481;52.588;22.472;2023-04-10T01:39:40;101028.23;;;3.13;100.00
34034;BME280;63481;52.588;22.472;2023-04-10T01:40:35;101028.43;;;3.13;100.00
34034;BME280;63481;52.588;22.472;2023-04-10T01:41:31;101025.70;;;3.12;100.00
34034;BME280;63481;52.588;22.472;2023-04-10T01:42:27;101028.59;;;3.13;100.00
34034;BME280;63481;52.588;22.472;2023-04-10T01:43:24;101023.35;;;3.32;100.00
34034;BME280;63481;52.588;22.472;2023-04-10T01:44:24;101023.66;;;3.47;100.00
34034;BME280;63481;52.588;22.472;2023-04-10T01:45:20;101022.39;;;3.51;100.00
34034;BME280;63481;52.588;22.472;2023-04-10T01:46:20;101019.15;;;3.53;100.00
34034;BME280;63481;52.588;22.472;2023-04-10T01:47:14;101021.33;;;3.55;100.00
34034;BME280;63481;52.588;22.472;2023-04-10T01:48:09;101023.09;;;3.55;100.00
34034;BME280;63481;52.588;22.472;2023-04-10T01:49:04;101019.89;;;3.55;100.00
34034;BME280;63481;52.588;22.472;2023-04-10T01:50:00;101018.58;;;3.54;100.00
34034;BME280;63481;52.588;22.472;2023-04-10T01:50:54;101017.91;;;3.53;100.00
34034;BME280;63481;52.588;22.472;2023-04-10T01:51:48;101021.52;;;3.53;100.00
34034;BME280;63481;52.588;22.472;2023-04-10T01:52:45;101021.77;;;3.57;100.00
34034;BME280;63481;52.588;22.472;2023-04-10T01:53:45;101023.36;;;3.61;100.00
34034;BME280;63481;52.588;22.472;2023-04-10T01:54:40;101023.75;;;3.63;100.00
34034;BME280;63481;52.588;22.472;2023-04-10T01:55:39;101024.96;;;3.65;100.00
34034;BME280;63481;52.588;22.472;2023-04-10T01:56:34;101027.02;;;3.67;100.00
34034;BME280;63481;52.588;22.472;2023-04-10T01:57:28;101023.76;;;3.69;100.00
34034;BME280;63481;52.588;22.472;2023-04-10T01:58:24;101025.91;;;3.68;100.00
34034;BME280;63481;52.588;22.472;2023-04-10T01:59:19;101024.63;;;3.61;100.00
34034;BME280;63481;52.588;22.472;2023-04-10T02:00:13;101025.30;;;3.50;100.00
34034;BME280;63481;52.588;22.472;2023-04-10T02:01:09;101027.13;;;3.42;100.00
34034;BME280;63481;52.588;22.472;2023-04-10T02:02:01;101028.92;;;3.38;100.00
34034;BME280;63481;52.588;22.472;2023-04-10T02:02:56;101027.20;;;3.35;100.00
34034;BME280;63481;52.588;22.472;2023-04-10T02:03:51;101032.36;;;3.29;100.00
34034;BME280;63481;52.588;22.472;2023-04-10T02:04:44;101034.39;;;3.24;100.00
34034;BME280;63481;52.588;22.472;2023-04-10T02:06:09;101033.98;;;3.19;100.00
34034;BME280;63481;52.588;22.472;2023-04-10T02:08:23;101030.09;;;3.10;100.00
34034;BME280;63481;52.588;22.472;2023-04-10T02:09:19;101030.63;;;3.10;100.00
34034;BME280;63481;52.588;22.472;2023-04-10T02:10:30;101032.52;;;3.14;100.00
34034;BME280;63481;52.588;22.472;2023-04-10T02:11:38;101033.14;;;3.19;100.00
34034;BME280;63481;52.588;22.472;2023-04-10T02:12:45;101031.08;;;3.24;100.00
34034;BME280;63481;52.588;22.472;2023-04-10T02:13:39;101026.55;;;3.31;100.00
34034;BME280;63481;52.588;22.472;2023-04-10T02:14:35;101029.39;;;3.34;100.00
34034;BME280;63481;52.588;22.472;2023-04-10T02:15:30;101031.17;;;3.25;100.00
34034;BME280;63481;52.588;22.472;2023-04-10T02:16:28;101029.67;;;3.22;100.00
34034;BME280;63481;52.588;22.472;2023-04-10T02:17:25;101029.70;;;3.16;100.00
34034;BME280;63481;52.588;22.472;2023-04-10T02:18:21;101035.20;;;3.10;100.00
34034;BME280;63481;52.588;22.472;2023-04-10T02:19:15;101035.98;;;3.05;100.00
34034;BME280;63481;52.588;22.472;2023-04-10T02:20:10;101032.59;;;3.04;100.00
34034;BME280;63481;52.588;22.472;2023-04-10T02:21:03;101032.13;;;3.05;100.00
34034;BME280;63481;52.588;22.472;2023-04-10T02:21:57;101033.58;;;3.07;100.00
34034;BME280;63481;52.588;22.472;2023-04-10T02:22:52;101034.23;;;3.07;100.00
34034;BME280;63481;52.588;22.472;2023-04-10T02:23:45;101036.14;;;3.07;100.00
34034;BME280;63481;52.588;22.472;2023-04-10T02:24:41;101035.40;;;3.08;100.00
34034;BME280;63481;52.588;22.472;2023-04-10T02:25:37;101031.78;;;3.09;100.00
34034;BME280;63481;52.588;22.472;2023-04-10T02:26:43;101032.90;;;3.10;100.00
34034;BME280;63481;52.588;22.472;2023-04-10T02:27:38;101034.48;;;3.10;100.00
34034;BME280;63481;52.588;22.472;2023-04-10T02:28:31;101036.95;;;3.10;100.00
34034;BME280;63481;52.588;22.472;2023-04-10T02:29:24;101036.79;;;3.06;100.00
34034;BME280;63481;52.588;22.472;2023-04-10T02:30:18;101037.78;;;3.03;100.00
34034;BME280;63481;52.588;22.472;2023-04-10T02:31:12;101040.16;;;2.99;100.00
34034;BME280;63481;52.588;22.472;2023-04-10T02:32:05;101041.36;;;2.98;100.00
34034;BME280;63481;52.588;22.472;2023-04-10T02:32:59;101039.02;;;2.98;100.00
34034;BME280;63481;52.588;22.472;2023-04-10T02:33:54;101042.58;;;2.98;100.00
34034;BME280;63481;52.588;22.472;2023-04-10T02:34:47;101042.85;;;2.95;100.00
34034;BME280;63481;52.588;22.472;2023-04-10T02:35:40;101040.50;;;2.94;100.00
34034;BME280;63481;52.588;22.472;2023-04-10T02:36:35;101043.88;;;2.90;100.00
34034;BME280;63481;52.588;22.472;2023-04-10T02:37:30;101039.98;;;2.86;100.00
34034;BME280;63481;52.588;22.472;2023-04-10T02:38:24;101040.27;;;2.87;100.00
34034;BME280;63481;52.588;22.472;2023-04-10T02:39:17;101039.46;;;2.88;100.00
34034;BME280;63481;52.588;22.472;2023-04-10T02:40:16;101036.33;;;2.84;100.00
34034;BME280;63481;52.588;22.472;2023-04-10T02:41:15;101040.19;;;2.84;100.00
34034;BME280;63481;52.588;22.472;2023-04-10T02:42:09;101039.66;;;2.84;100.00
34034;BME280;63481;52.588;22.472;2023-04-10T02:43:02;101037.19;;;2.82;100.00
34034;BME280;63481;52.588;22.472;2023-04-10T02:43:56;101039.38;;;2.81;100.00
34034;BME280;63481;52.588;22.472;2023-04-10T02:44:52;101037.71;;;2.78;100.00
34034;BME280;63481;52.588;22.472;2023-04-10T02:45:46;101035.03;;;2.77;100.00
34034;BME280;63481;52.588;22.472;2023-04-10T02:46:43;101034.84;;;2.75;100.00
34034;BME280;63481;52.588;22.472;2023-04-10T02:47:36;101036.12;;;2.73;100.00
34034;BME280;63481;52.588;22.472;2023-04-10T02:48:29;101037.72;;;2.72;100.00
34034;BME280;63481;52.588;22.472;2023-04-10T02:49:25;101041.29;;;2.74;100.00
34034;BME280;63481;52.588;22.472;2023-04-10T02:50:19;101042.02;;;2.73;100.00
34034;BME280;63481;52.588;22.472;2023-04-10T02:51:13;101038.05;;;2.72;100.00
34034;BME280;63481;52.588;22.472;2023-04-10T02:52:06;101039.48;;;2.72;100.00
34034;BME280;63481;52.588;22.472;2023-04-10T02:53:00;101039.61;;;2.71;100.00
34034;BME280;63481;52.588;22.472;2023-04-10T02:53:53;101036.71;;;2.70;100.00
34034;BME280;63481;52.588;22.472;2023-04-10T02:54:56;101035.84;;;2.68;100.00
34034;BME280;63481;52.588;22.472;2023-04-10T02:55:52;101041.98;;;2.64;100.00
34034;BME280;63481;52.588;22.472;2023-04-10T02:56:47;101036.81;;;2.61;100.00
34034;BME280;63481;52.588;22.472;2023-04-10T02:57:40;101041.48;;;2.60;100.00
34034;BME280;63481;52.588;22.472;2023-04-10T02:58:34;101039.42;;;2.59;100.00
34034;BME280;63481;52.588;22.472;2023-04-10T02:59:28;101040.88;;;2.59;100.00
34034;BME280;63481;52.588;22.472;2023-04-10T03:00:21;101041.30;;;2.58;100.00
34034;BME280;63481;52.588;22.472;2023-04-10T03:01:35;101041.67;;;2.58;100.00
34034;BME280;63481;52.588;22.472;2023-04-10T03:02:28;101038.88;;;2.58;100.00
34034;BME280;63481;52.588;22.472;2023-04-10T03:03:23;101037.77;;;2.56;100.00
34034;BME280;63481;52.588;22.472;2023-04-10T03:04:19;101039.23;;;2.54;100.00
34034;BME280;63481;52.588;22.472;2023-04-10T03:05:12;101040.02;;;2.51;100.00
34034;BME280;63481;52.588;22.472;2023-04-10T03:06:08;101038.26;;;2.49;100.00
34034;BME280;63481;52.588;22.472;2023-04-10T03:07:02;101041.23;;;2.45;100.00
34034;BME280;63481;52.588;22.472;2023-04-10T03:07:55;101035.61;;;2.43;100.00
34034;BME280;63481;52.588;22.472;2023-04-10T03:08:48;101036.98;;;2.42;100.00
34034;BME280;63481;52.588;22.472;2023-04-10T03:09:42;101039.45;;;2.41;100.00
34034;BME280;63481;52.588;22.472;2023-04-10T03:10:35;101040.93;;;2.40;100.00
34034;BME280;63481;52.588;22.472;2023-04-10T03:11:28;101042.98;;;2.39;100.00
34034;BME280;63481;52.588;22.472;2023-04-10T03:12:22;101046.58;;;2.38;100.00
34034;BME280;63481;52.588;22.472;2023-04-10T03:13:16;101052.10;;;2.39;100.00
34034;BME280;63481;52.588;22.472;2023-04-10T03:14:09;101049.27;;;2.37;100.00
34034;BME280;63481;52.588;22.472;2023-04-10T03:15:03;101049.79;;;2.35;100.00
34034;BME280;63481;52.588;22.472;2023-04-10T03:15:56;101046.17;;;2.34;100.00
34034;BME280;63481;52.588;22.472;2023-04-10T03:16:48;101047.23;;;2.32;100.00
34034;BME280;63481;52.588;22.472;2023-04-10T03:17:41;101050.67;;;2.31;100.00
34034;BME280;63481;52.588;22.472;2023-04-10T03:18:35;101054.15;;;2.34;100.00
34034;BME280;63481;52.588;22.472;2023-04-10T03:19:28;101051.27;;;2.30;100.00
34034;BME280;63481;52.588;22.472;2023-04-10T03:20:22;101051.30;;;2.34;100.00
34034;BME280;63481;52.588;22.472;2023-04-10T03:21:15;101051.17;;;2.31;100.00
34034;BME280;63481;52.588;22.472;2023-04-10T03:22:08;101050.14;;;2.27;100.00
34034;BME280;63481;52.588;22.472;2023-04-10T03:23:04;101049.91;;;2.24;100.00
34034;BME280;63481;52.588;22.472;2023-04-10T03:23:58;101046.65;;;2.21;100.00
34034;BME280;63481;52.588;22.472;2023-04-10T03:24:51;101048.00;;;2.20;100.00
34034;BME280;63481;52.588;22.472;2023-04-10T03:25:48;101051.00;;;2.20;100.00
34034;BME280;63481;52.588;22.472;2023-04-10T03:26:43;101046.54;;;2.19;100.00
34034;BME280;63481;52.588;22.472;2023-04-10T03:27:37;101045.40;;;2.17;100.00
34034;BME280;63481;52.588;22.472;2023-04-10T03:28:31;101047.09;;;2.20;100.00
34034;BME280;63481;52.588;22.472;2023-04-10T03:29:28;101046.77;;;2.24;100.00
34034;BME280;63481;52.588;22.472;2023-04-10T03:30:22;101045.15;;;2.26;100.00
34034;BME280;63481;52.588;22.472;2023-04-10T03:31:15;101042.45;;;2.29;100.00
34034;BME280;63481;52.588;22.472;2023-04-10T03:32:09;101042.05;;;2.31;100.00
34034;BME280;63481;52.588;22.472;2023-04-10T03:33:03;101042.89;;;2.30;100.00
34034;BME280;63481;52.588;22.472;2023-04-10T03:33:56;101043.34;;;2.29;100.00
34034;BME280;63481;52.588;22.472;2023-04-10T03:34:50;101042.19;;;2.28;100.00
34034;BME280;63481;52.588;22.472;2023-04-10T03:35:46;101045.35;;;2.28;100.00
34034;BME280;63481;52.588;22.472;2023-04-10T03:36:40;101041.91;;;2.25;100.00
34034;BME280;63481;52.588;22.472;2023-04-10T03:37:33;101042.42;;;2.21;100.00
34034;BME280;63481;52.588;22.472;2023-04-10T03:38:26;101042.61;;;2.19;100.00
34034;BME280;63481;52.588;22.472;2023-04-10T03:39:20;101040.39;;;2.17;100.00
34034;BME280;63481;52.588;22.472;2023-04-10T03:40:13;101040.27;;;2.14;100.00
34034;BME280;63481;52.588;22.472;2023-04-10T03:41:07;101040.50;;;2.11;100.00
34034;BME280;63481;52.588;22.472;2023-04-10T03:42:01;101040.58;;;2.09;100.00
34034;BME280;63481;52.588;22.472;2023-04-10T03:42:54;101039.31;;;2.07;100.00
34034;BME280;63481;52.588;22.472;2023-04-10T03:43:48;101039.27;;;2.06;100.00
34034;BME280;63481;52.588;22.472;2023-04-10T03:44:41;101039.83;;;2.03;100.00
34034;BME280;63481;52.588;22.472;2023-04-10T03:45:34;101037.69;;;2.01;100.00
34034;BME280;63481;52.588;22.472;2023-04-10T03:46:28;101038.04;;;1.99;100.00
34034;BME280;63481;52.588;22.472;2023-04-10T03:47:21;101041.42;;;1.99;100.00
34034;BME280;63481;52.588;22.472;2023-04-10T03:48:16;101037.61;;;2.00;100.00
34034;BME280;63481;52.588;22.472;2023-04-10T03:49:11;101040.48;;;2.04;100.00
34034;BME280;63481;52.588;22.472;2023-04-10T03:50:05;101034.95;;;2.05;100.00
34034;BME280;63481;52.588;22.472;2023-04-10T03:51:03;101037.77;;;2.05;100.00
34034;BME280;63481;52.588;22.472;2023-04-10T03:51:56;101037.35;;;2.05;100.00
34034;BME280;63481;52.588;22.472;2023-04-10T03:52:50;101036.92;;;2.06;100.00
34034;BME280;63481;52.588;22.472;2023-04-10T03:53:44;101039.56;;;2.08;100.00
34034;BME280;63481;52.588;22.472;2023-04-10T03:54:39;101040.74;;;2.11;100.00
34034;BME280;63481;52.588;22.472;2023-04-10T03:55:37;101041.03;;;2.11;100.00
34034;BME280;63481;52.588;22.472;2023-04-10T03:56:31;101040.15;;;2.13;100.00
34034;BME280;63481;52.588;22.472;2023-04-10T03:57:26;101042.30;;;2.17;100.00
34034;BME280;63481;52.588;22.472;2023-04-10T03:58:22;101045.88;;;2.20;100.00
34034;BME280;63481;52.588;22.472;2023-04-10T03:59:16;101047.02;;;2.19;100.00
34034;BME280;63481;52.588;22.472;2023-04-10T04:00:11;101046.91;;;2.14;100.00
34034;BME280;63481;52.588;22.472;2023-04-10T04:01:13;101050.52;;;2.11;100.00
34034;BME280;63481;52.588;22.472;2023-04-10T04:02:24;101050.91;;;2.07;100.00
34034;BME280;63481;52.588;22.472;2023-04-10T04:03:19;101051.52;;;2.04;100.00
34034;BME280;63481;52.588;22.472;2023-04-10T04:04:18;101052.46;;;2.03;100.00
34034;BME280;63481;52.588;22.472;2023-04-10T04:05:40;101054.22;;;2.01;100.00
34034;BME280;63481;52.588;22.472;2023-04-10T04:06:56;101057.06;;;1.99;100.00
34034;BME280;63481;52.588;22.472;2023-04-10T04:07:59;101064.41;;;1.97;100.00
34034;BME280;63481;52.588;22.472;2023-04-10T04:09:00;101064.56;;;1.95;100.00
34034;BME280;63481;52.588;22.472;2023-04-10T04:10:14;101063.97;;;1.96;100.00
34034;BME280;63481;52.588;22.472;2023-04-10T04:11:28;101066.98;;;1.95;100.00
34034;BME280;63481;52.588;22.472;2023-04-10T04:12:25;101070.51;;;1.95;100.00
34034;BME280;63481;52.588;22.472;2023-04-10T04:13:45;101069.50;;;1.95;100.00
34034;BME280;63481;52.588;22.472;2023-04-10T04:14:51;101071.52;;;1.94;100.00
34034;BME280;63481;52.588;22.472;2023-04-10T04:16:03;101071.90;;;1.93;100.00
34034;BME280;63481;52.588;22.472;2023-04-10T04:17:09;101072.27;;;1.91;100.00
34034;BME280;63481;52.588;22.472;2023-04-10T04:18:21;101069.48;;;1.89;100.00
34034;BME280;63481;52.588;22.472;2023-04-10T04:19:19;101069.16;;;1.89;100.00
34034;BME280;63481;52.588;22.472;2023-04-10T04:20:31;101072.54;;;1.88;100.00
34034;BME280;63481;52.588;22.472;2023-04-10T04:21:38;101070.12;;;1.90;100.00
34034;BME280;63481;52.588;22.472;2023-04-10T04:22:45;101070.02;;;1.95;100.00
34034;BME280;63481;52.588;22.472;2023-04-10T04:23:59;101069.13;;;1.99;100.00
34034;BME280;63481;52.588;22.472;2023-04-10T04:24:58;101065.19;;;2.02;100.00
34034;BME280;63481;52.588;22.472;2023-04-10T04:26:26;101063.25;;;2.04;100.00
34034;BME280;63481;52.588;22.472;2023-04-10T04:27:39;101066.70;;;2.05;100.00
34034;BME280;63481;52.588;22.472;2023-04-10T04:28:47;101066.48;;;2.03;100.00
34034;BME280;63481;52.588;22.472;2023-04-10T04:29:50;101070.70;;;2.03;100.00
34034;BME280;63481;52.588;22.472;2023-04-10T04:31:02;101065.47;;;2.03;100.00
34034;BME280;63481;52.588;22.472;2023-04-10T04:32:25;101069.56;;;2.02;100.00
34034;BME280;63481;52.588;22.472;2023-04-10T04:33:23;101068.13;;;2.02;100.00
34034;BME280;63481;52.588;22.472;2023-04-10T04:34:29;101068.98;;;2.05;100.00
34034;BME280;63481;52.588;22.472;2023-04-10T04:35:42;101067.27;;;2.08;100.00
34034;BME280;63481;52.588;22.472;2023-04-10T04:37:05;101069.81;;;2.13;100.00
34034;BME280;63481;52.588;22.472;2023-04-10T04:38:04;101070.31;;;2.12;100.00
34034;BME280;63481;52.588;22.472;2023-04-10T04:39:15;101073.40;;;2.12;100.00
34034;BME280;63481;52.588;22.472;2023-04-10T04:40:30;101073.73;;;2.12;100.00
34034;BME280;63481;52.588;22.472;2023-04-10T04:41:43;101077.07;;;2.14;100.00
34034;BME280;63481;52.588;22.472;2023-04-10T04:42:46;101081.48;;;2.16;100.00
34034;BME280;63481;52.588;22.472;2023-04-10T04:44:04;101082.70;;;2.24;100.00
34034;BME280;63481;52.588;22.472;2023-04-10T04:45:30;101082.20;;;2.36;100.00
34034;BME280;63481;52.588;22.472;2023-04-10T04:46:54;101082.98;;;2.39;100.00
34034;BME280;63481;52.588;22.472;2023-04-10T04:47:50;101084.17;;;2.41;100.00
34034;BME280;63481;52.588;22.472;2023-04-10T04:48:54;101086.75;;;2.45;100.00
34034;BME280;63481;52.588;22.472;2023-04-10T04:49:55;101086.86;;;2.45;100.00
34034;BME280;63481;52.588;22.472;2023-04-10T04:50:48;101085.91;;;2.46;100.00
34034;BME280;63481;52.588;22.472;2023-04-10T04:52:01;101091.27;;;2.47;100.00
34034;BME280;63481;52.588;22.472;2023-04-10T04:53:08;101091.70;;;2.50;100.00
34034;BME280;63481;52.588;22.472;2023-04-10T04:54:23;101092.10;;;2.53;100.00
34034;BME280;63481;52.588;22.472;2023-04-10T04:55:33;101094.76;;;2.59;100.00
34034;BME280;63481;52.588;22.472;2023-04-10T04:56:48;101096.17;;;2.61;100.00
34034;BME280;63481;52.588;22.472;2023-04-10T04:58:09;101095.58;;;2.62;100.00
34034;BME280;63481;52.588;22.472;2023-04-10T04:59:21;101093.39;;;2.62;100.00
34034;BME280;63481;52.588;22.472;2023-04-10T05:00:44;101097.48;;;2.66;100.00
34034;BME280;63481;52.588;22.472;2023-04-10T05:01:49;101096.43;;;2.66;100.00
34034;BME280;63481;52.588;22.472;2023-04-10T05:02:58;101095.96;;;2.69;100.00
34034;BME280;63481;52.588;22.472;2023-04-10T05:04:09;101095.25;;;2.75;100.00
34034;BME280;63481;52.588;22.472;2023-04-10T05:05:21;101095.56;;;2.77;100.00
34034;BME280;63481;52.588;22.472;2023-04-10T05:06:40;101101.67;;;2.80;100.00
34034;BME280;63481;52.588;22.472;2023-04-10T05:07:54;101098.46;;;2.84;100.00
34034;BME280;63481;52.588;22.472;2023-04-10T05:09:07;101098.25;;;2.88;100.00
34034;BME280;63481;52.588;22.472;2023-04-10T05:10:29;101100.80;;;2.91;100.00